createdAt,value
2022-08-05T00:01:35.490Z,19.03
2022-08-05T00:04:05.092Z,18.99
2022-08-05T00:06:35.838Z,18.98
2022-08-05T00:09:04.861Z,18.94
2022-08-05T00:11:49.671Z,18.92
2022-08-05T00:14:28.877Z,18.90
2022-08-05T00:16:56.754Z,18.88
2022-08-05T00:19:24.734Z,18.85
2022-08-05T00:21:59.970Z,18.83
2022-08-05T00:24:30.695Z,18.81
2022-08-05T00:27:00.207Z,18.79
2022-08-05T00:29:37.813Z,18.73
2022-08-05T00:32:13.343Z,18.74
2022-08-05T00:35:05.326Z,18.70
2022-08-05T00:37:50.496Z,18.67
2022-08-05T00:40:26.738Z,18.65
2022-08-05T00:43:01.759Z,18.61
2022-08-05T00:45:42.822Z,18.59
2022-08-05T00:48:13.441Z,18.56
2022-08-05T00:50:42.011Z,18.53
2022-08-05T00:53:44.962Z,18.49
2022-08-05T00:56:00.844Z,18.45
2022-08-05T00:58:27.850Z,18.41
2022-08-05T01:00:55.332Z,18.41
2022-08-05T01:03:23.438Z,18.35
2022-08-05T01:05:54.468Z,18.35
2022-08-05T01:08:41.886Z,18.31
2022-08-05T01:11:33.650Z,18.29
2022-08-05T01:14:31.393Z,18.27
2022-08-05T01:17:17.056Z,18.23
2022-08-05T01:20:18.317Z,18.17
2022-08-05T01:22:51.159Z,18.12
2022-08-05T01:25:40.841Z,18.08
2022-08-05T01:31:02.963Z,17.97
2022-08-05T01:33:38.169Z,17.95
2022-08-05T01:36:16.250Z,17.91
2022-08-05T01:38:46.186Z,17.91
2022-08-05T01:41:21.695Z,17.89
2022-08-05T01:43:50.970Z,17.87
2022-08-05T01:46:41.435Z,17.84
2022-08-05T01:49:23.142Z,17.82
2022-08-05T01:51:58.348Z,17.82
2022-08-05T01:54:32.706Z,17.81
2022-08-05T01:58:10.553Z,17.81
2022-08-05T01:59:51.450Z,17.82
2022-08-05T02:02:26.017Z,17.80
2022-08-05T02:04:58.811Z,17.81
2022-08-05T02:07:26.039Z,17.82
2022-08-05T02:09:57.873Z,17.79
2022-08-05T02:12:25.253Z,17.80
2022-08-05T02:15:12.451Z,17.81
2022-08-05T02:18:32.174Z,17.78
2022-08-05T02:20:48.923Z,17.78
2022-08-05T02:23:22.391Z,17.79
2022-08-05T02:25:51.312Z,17.76
2022-08-05T02:28:29.177Z,17.74
2022-08-05T02:31:05.941Z,17.74
2022-08-05T02:33:42.046Z,17.69
2022-08-05T02:36:13.570Z,17.66
2022-08-05T02:38:52.792Z,17.64
2022-08-05T02:41:23.812Z,17.63
2022-08-05T02:44:06.772Z,17.63
2022-08-05T02:46:53.178Z,17.59
2022-08-05T02:49:35.882Z,17.54
2022-08-05T02:52:29.372Z,17.56
2022-08-05T02:55:05.087Z,17.52
2022-08-05T02:58:19.708Z,17.54
2022-08-05T03:00:22.497Z,17.51
2022-08-05T03:02:53.628Z,17.50
2022-08-05T03:05:21.836Z,17.46
2022-08-05T03:08:10.899Z,17.49
2022-08-05T03:10:38.319Z,17.49
2022-08-05T03:13:17.350Z,17.47
2022-08-05T03:15:48.509Z,17.48
2022-08-05T03:18:18.872Z,17.48
2022-08-05T03:20:57.056Z,17.46
2022-08-05T03:23:24.823Z,17.47
2022-08-05T03:26:04.761Z,17.46
2022-08-05T03:28:38.877Z,17.47
2022-08-05T03:31:06.311Z,17.46
2022-08-05T03:33:51.164Z,17.43
2022-08-05T03:36:30.601Z,17.44
2022-08-05T03:38:58.457Z,17.45
2022-08-05T03:41:25.497Z,17.45
2022-08-05T03:44:11.287Z,17.45
2022-08-05T03:46:38.838Z,17.43
2022-08-05T03:49:05.745Z,17.46
2022-08-05T03:52:38.007Z,17.45
2022-08-05T03:55:52.829Z,17.44
2022-08-05T03:57:49.409Z,17.45
2022-08-05T04:00:16.802Z,17.42
2022-08-05T04:02:51.932Z,17.45
2022-08-05T04:05:19.864Z,17.42
2022-08-05T04:07:57.544Z,17.45
2022-08-05T04:10:33.240Z,17.43
2022-08-05T04:13:07.609Z,17.42
2022-08-05T04:15:36.073Z,17.40
2022-08-05T04:18:06.861Z,17.38
2022-08-05T04:20:34.504Z,17.34
2022-08-05T04:23:01.806Z,17.34
2022-08-05T04:25:57.591Z,17.32
2022-08-05T04:28:17.200Z,17.32
2022-08-05T04:30:44.780Z,17.30
2022-08-05T04:33:12.621Z,17.30
2022-08-05T04:36:15.829Z,17.28
2022-08-05T04:38:39.926Z,17.28
2022-08-05T04:41:09.565Z,17.24
2022-08-05T04:43:40.511Z,17.25
2022-08-05T04:46:13.727Z,17.25
2022-08-05T04:48:57.969Z,17.23
2022-08-05T04:51:25.925Z,17.23
2022-08-05T04:53:58.573Z,17.23
2022-08-05T04:56:35.020Z,17.24
2022-08-05T04:59:22.415Z,17.20
2022-08-05T05:02:35.418Z,17.21
2022-08-05T05:04:44.063Z,17.19
2022-08-05T05:07:17.118Z,17.18
2022-08-05T05:09:45.440Z,17.16
2022-08-05T05:12:12.404Z,17.16
2022-08-05T05:14:49.298Z,17.16
2022-08-05T05:17:23.446Z,17.14
2022-08-05T05:19:53.804Z,17.13
2022-08-05T05:22:24.101Z,17.14
2022-08-05T05:24:56.885Z,17.13
2022-08-05T05:27:45.221Z,17.13
2022-08-05T05:30:15.729Z,17.12
2022-08-05T05:33:00.100Z,17.12
2022-08-05T05:35:34.192Z,17.10
2022-08-05T05:38:09.438Z,17.11
2022-08-05T05:40:49.965Z,17.11
2022-08-05T05:43:54.225Z,17.12
2022-08-05T05:46:17.520Z,17.08
2022-08-05T05:48:48.277Z,17.12
2022-08-05T05:51:20.540Z,17.12
2022-08-05T05:53:57.381Z,17.11
2022-08-05T05:56:32.347Z,17.09
2022-08-05T05:59:10.220Z,17.12
2022-08-05T06:01:41.205Z,17.10
2022-08-05T06:04:25.329Z,17.09
2022-08-05T06:06:52.284Z,17.08
2022-08-05T06:09:25.742Z,17.05
2022-08-05T06:11:59.155Z,17.02
2022-08-05T06:14:28.079Z,17.03
2022-08-05T06:16:56.876Z,17.00
2022-08-05T06:19:32.980Z,16.98
2022-08-05T06:22:04.289Z,16.94
2022-08-05T06:24:34.789Z,16.93
2022-08-05T06:27:05.370Z,16.91
2022-08-05T06:29:49.472Z,16.88
2022-08-05T06:32:25.868Z,16.86
2022-08-05T06:34:58.374Z,16.83
2022-08-05T06:37:58.127Z,16.81
2022-08-05T06:40:18.503Z,16.76
2022-08-05T06:42:52.306Z,16.71
2022-08-05T06:45:44.010Z,16.67
2022-08-05T06:48:44.067Z,16.66
2022-08-05T06:50:57.157Z,16.60
2022-08-05T06:53:28.600Z,16.56
2022-08-05T06:56:00.575Z,16.54
2022-08-05T06:58:35.361Z,16.51
2022-08-05T07:01:06.186Z,16.50
2022-08-05T07:03:34.245Z,16.46
2022-08-05T07:06:06.053Z,16.46
2022-08-05T07:08:43.056Z,16.43
2022-08-05T07:11:16.011Z,16.38
2022-08-05T07:14:02.500Z,16.36
2022-08-05T07:18:08.177Z,16.35
2022-08-05T07:20:16.814Z,16.33
2022-08-05T07:22:29.047Z,16.29
2022-08-05T07:24:59.404Z,16.28
2022-08-05T07:27:27.601Z,16.27
2022-08-05T07:30:24.160Z,16.24
2022-08-05T07:33:08.799Z,16.20
2022-08-05T07:36:03.459Z,16.18
2022-08-05T07:38:33.041Z,16.13
2022-08-05T07:42:07.354Z,16.16
2022-08-05T07:43:51.005Z,16.13
2022-08-05T07:46:24.538Z,16.16
2022-08-05T07:49:03.026Z,16.16
2022-08-05T07:51:48.711Z,16.13
2022-08-05T07:54:31.250Z,16.13
2022-08-05T07:57:14.001Z,16.10
2022-08-05T07:59:52.204Z,16.08
2022-08-05T08:02:31.434Z,16.07
2022-08-05T08:05:16.282Z,16.04
2022-08-05T08:07:59.954Z,16.04
2022-08-05T08:10:28.772Z,16.04
2022-08-05T08:12:58.937Z,16.00
2022-08-05T08:16:35.877Z,16.01
2022-08-05T08:18:13.970Z,16.01
2022-08-05T08:21:00.032Z,15.97
2022-08-05T08:24:01.192Z,15.93
2022-08-05T08:26:15.192Z,15.94
2022-08-05T08:28:55.255Z,15.94
2022-08-05T08:31:27.458Z,15.88
2022-08-05T08:33:59.810Z,15.85
2022-08-05T08:36:37.412Z,15.85
2022-08-05T08:39:15.853Z,15.85
2022-08-05T08:41:52.183Z,15.84
2022-08-05T08:45:21.057Z,15.85
2022-08-05T08:48:05.975Z,15.85
2022-08-05T08:50:31.119Z,15.82
2022-08-05T08:53:12.291Z,15.79
2022-08-05T08:56:03.406Z,15.77
2022-08-05T08:58:37.660Z,15.72
2022-08-05T09:01:16.280Z,15.68
2022-08-05T09:03:46.981Z,15.65
2022-08-05T09:06:18.634Z,15.64
2022-08-05T09:08:47.155Z,15.67
2022-08-05T09:11:15.309Z,15.63
2022-08-05T09:14:09.382Z,15.66
2022-08-05T09:16:30.512Z,15.64
2022-08-05T09:18:59.324Z,15.64
2022-08-05T09:22:23.072Z,15.64
2022-08-05T09:24:15.856Z,15.62
2022-08-05T09:26:51.884Z,15.66
2022-08-05T09:29:19.273Z,15.64
2022-08-05T09:32:42.253Z,15.66
2022-08-05T09:34:55.461Z,15.67
2022-08-05T09:38:16.854Z,15.69
2022-08-05T09:40:34.547Z,15.73
2022-08-05T09:43:03.740Z,15.74
2022-08-05T09:46:07.238Z,15.77
2022-08-05T09:48:30.535Z,15.79
2022-08-05T09:51:02.783Z,15.79
2022-08-05T09:53:54.506Z,15.80
2022-08-05T09:56:33.436Z,15.81
2022-08-05T09:59:08.090Z,15.80
2022-08-05T10:01:39.698Z,15.81
2022-08-05T10:04:16.222Z,15.83
2022-08-05T10:06:59.264Z,15.88
2022-08-05T10:09:29.492Z,15.88
2022-08-05T10:12:30.338Z,15.94
2022-08-05T10:15:28.540Z,16.00
2022-08-05T10:18:04.080Z,16.03
2022-08-05T10:20:34.297Z,16.07
2022-08-05T10:23:01.689Z,16.13
2022-08-05T10:25:30.633Z,16.19
2022-08-05T10:28:13.857Z,16.23
2022-08-05T10:32:52.338Z,16.31
2022-08-05T10:33:34.263Z,16.36
2022-08-05T10:36:06.780Z,16.38
2022-08-05T10:38:36.920Z,16.39
2022-08-05T10:41:23.613Z,16.49
2022-08-05T10:44:05.813Z,16.52
2022-08-05T10:46:50.967Z,16.57
2022-08-05T10:49:27.553Z,16.63
2022-08-05T10:52:04.991Z,16.66
2022-08-05T10:55:11.865Z,16.76
2022-08-05T10:57:44.756Z,16.84
2022-08-05T11:00:23.176Z,16.89
2022-08-05T11:03:23.784Z,16.95
2022-08-05T11:06:04.303Z,17.01
2022-08-05T11:08:38.035Z,17.07
2022-08-05T11:11:44.696Z,17.19
2022-08-05T11:14:49.438Z,17.29
2022-08-05T11:17:59.014Z,17.40
2022-08-05T11:20:46.147Z,17.50
2022-08-05T11:24:03.273Z,17.59
2022-08-05T11:26:28.207Z,17.73
2022-08-05T11:28:56.688Z,17.80
2022-08-05T11:31:58.243Z,17.94
2022-08-05T11:34:36.682Z,18.05
2022-08-05T11:37:06.323Z,18.12
2022-08-05T11:39:55.380Z,18.19
2022-08-05T11:42:28.458Z,18.27
2022-08-05T11:45:05.369Z,18.34
2022-08-05T11:47:49.426Z,18.44
2022-08-05T11:50:18.041Z,18.51
2022-08-05T11:52:46.168Z,18.57
2022-08-05T11:55:16.564Z,18.65
2022-08-05T11:58:10.116Z,18.72
2022-08-05T12:00:38.637Z,18.79
2022-08-05T12:03:31.760Z,18.89
2022-08-05T12:06:05.996Z,18.92
2022-08-05T12:08:50.929Z,18.94
2022-08-05T12:11:40.157Z,18.98
2022-08-05T12:14:10.130Z,19.03
2022-08-05T12:16:39.568Z,19.07
2022-08-05T12:19:09.981Z,19.11
2022-08-05T12:21:57.114Z,19.15
2022-08-05T12:24:24.637Z,19.20
2022-08-05T12:26:53.943Z,19.20
2022-08-05T12:29:23.769Z,19.27
2022-08-05T12:31:54.353Z,19.33
2022-08-05T12:34:33.521Z,19.38
2022-08-05T12:37:29.771Z,19.44
2022-08-05T12:40:03.648Z,19.51
2022-08-05T12:42:39.790Z,19.52
2022-08-05T12:45:11.262Z,19.56
2022-08-05T12:47:43.605Z,19.59
2022-08-05T12:50:25.519Z,19.61
2022-08-05T12:52:59.594Z,19.65
2022-08-05T12:55:28.594Z,19.64
2022-08-05T12:58:39.173Z,19.65
2022-08-05T13:02:00.938Z,19.66
2022-08-05T13:03:41.413Z,19.68
2022-08-05T13:06:13.596Z,19.70
2022-08-05T13:08:51.630Z,19.70
2022-08-05T13:12:02.315Z,19.70
2022-08-05T13:14:19.846Z,19.68
2022-08-05T13:16:58.741Z,19.65
2022-08-05T13:19:27.836Z,19.62
2022-08-05T13:22:14.639Z,19.54
2022-08-05T13:24:58.148Z,19.47
2022-08-05T13:27:35.522Z,19.44
2022-08-05T13:30:35.821Z,19.41
2022-08-05T13:32:56.423Z,19.36
2022-08-05T13:35:42.674Z,19.32
2022-08-05T13:38:20.034Z,19.26
2022-08-05T13:40:57.585Z,19.24
2022-08-05T13:43:24.516Z,19.20
2022-08-05T13:46:12.007Z,19.17
2022-08-05T13:48:58.743Z,19.14
2022-08-05T13:51:40.434Z,19.12
2022-08-05T13:54:13.652Z,19.13
2022-08-05T13:56:44.909Z,19.11
2022-08-05T13:59:19.665Z,19.08
2022-08-05T14:01:59.122Z,19.08
2022-08-05T14:04:56.739Z,19.08
2022-08-05T14:07:59.945Z,19.10
2022-08-05T14:10:28.711Z,19.11
2022-08-05T14:12:58.599Z,19.11
2022-08-05T14:16:08.645Z,19.09
2022-08-05T14:18:18.617Z,19.14
2022-08-05T14:20:54.414Z,19.17
2022-08-05T14:23:25.583Z,19.19
2022-08-05T14:25:58.677Z,19.19
2022-08-05T14:28:30.797Z,19.24
2022-08-05T14:30:59.825Z,19.26
2022-08-05T14:33:56.387Z,19.27
2022-08-05T14:36:15.481Z,19.31
2022-08-05T14:38:42.315Z,19.36
2022-08-05T14:41:11.470Z,19.37
2022-08-05T14:43:59.606Z,19.35
2022-08-05T14:46:30.738Z,19.37
2022-08-05T14:49:06.533Z,19.39
2022-08-05T14:51:42.898Z,19.43
2022-08-05T14:54:29.629Z,19.46
2022-08-05T14:56:58.451Z,19.49
2022-08-05T14:59:29.754Z,19.50
2022-08-05T15:02:03.271Z,19.52
2022-08-05T15:04:30.194Z,19.54
2022-08-05T15:06:57.059Z,19.57
2022-08-05T15:09:52.725Z,19.59
2022-08-05T15:12:11.609Z,19.59
2022-08-05T15:14:54.036Z,19.58
2022-08-05T15:17:44.881Z,19.59
2022-08-05T15:20:17.143Z,19.58
2022-08-05T15:22:54.171Z,19.60
2022-08-05T15:25:40.950Z,19.64
2022-08-05T15:28:14.462Z,19.65
2022-08-05T15:30:45.540Z,19.71
2022-08-05T15:33:56.774Z,19.72
2022-08-05T15:36:03.605Z,19.72
2022-08-05T15:38:42.299Z,19.73
2022-08-05T15:41:23.261Z,19.75
2022-08-05T15:43:55.353Z,19.81
2022-08-05T15:46:24.299Z,19.84
2022-08-05T15:48:54.806Z,19.89
2022-08-05T15:52:12.541Z,19.96
2022-08-05T15:54:16.588Z,20.05
2022-08-05T15:56:43.767Z,20.09
2022-08-05T15:59:22.076Z,20.13
2022-08-05T16:01:53.467Z,20.15
2022-08-05T16:04:25.565Z,20.19
2022-08-05T16:06:56.660Z,20.19
2022-08-05T16:09:25.558Z,20.18
2022-08-05T16:11:53.997Z,20.17
2022-08-05T16:14:22.397Z,20.17
2022-08-05T16:16:49.890Z,20.17
2022-08-05T16:19:25.712Z,20.15
2022-08-05T16:22:04.401Z,20.15
2022-08-05T16:24:40.259Z,20.14
2022-08-05T16:27:09.491Z,20.14
2022-08-05T16:29:37.283Z,20.16
2022-08-05T16:32:06.554Z,20.13
2022-08-05T16:34:37.307Z,20.12
2022-08-05T16:38:15.096Z,20.12
2022-08-05T16:40:07.342Z,20.08
2022-08-05T16:42:40.462Z,20.09
2022-08-05T16:46:04.704Z,20.08
2022-08-05T16:47:58.508Z,20.04
2022-08-05T16:50:29.558Z,20.01
2022-08-05T16:52:58.286Z,19.99
2022-08-05T16:55:28.613Z,19.98
2022-08-05T16:58:14.487Z,19.95
2022-08-05T17:00:41.344Z,19.93
2022-08-05T17:03:15.402Z,19.89
2022-08-05T17:05:53.738Z,19.83
2022-08-05T17:08:36.278Z,19.81
2022-08-05T17:11:12.784Z,19.77
2022-08-05T17:13:46.942Z,19.74
2022-08-05T17:16:32.567Z,19.71
2022-08-05T17:19:01.049Z,19.65
2022-08-05T17:21:35.620Z,19.62
2022-08-05T17:24:18.369Z,19.56
2022-08-05T17:26:52.655Z,19.49
2022-08-05T17:29:22.459Z,19.48
2022-08-05T17:31:58.353Z,19.47
2022-08-05T17:34:29.967Z,19.43
2022-08-05T17:37:00.263Z,19.39
2022-08-05T17:39:34.607Z,19.34
2022-08-05T17:42:19.137Z,19.31
2022-08-05T17:44:50.727Z,19.27
2022-08-05T17:47:21.916Z,19.24
2022-08-05T17:50:00.582Z,19.19
2022-08-05T17:52:33.163Z,19.18
2022-08-05T17:55:01.229Z,19.14
2022-08-05T17:57:30.161Z,19.10
2022-08-05T18:00:03.272Z,19.05
2022-08-05T18:02:31.758Z,19.01
2022-08-05T18:05:02.839Z,18.98
2022-08-05T18:07:41.513Z,18.94
2022-08-05T18:10:20.302Z,18.89
2022-08-05T18:12:49.394Z,18.79
2022-08-05T18:15:16.394Z,18.76
2022-08-05T18:18:00.440Z,18.70
2022-08-05T18:20:32.242Z,18.64
2022-08-05T18:23:08.986Z,18.59
2022-08-05T18:25:39.579Z,18.52
2022-08-05T18:28:12.598Z,18.48
2022-08-05T18:30:45.264Z,18.45
2022-08-05T18:33:13.717Z,18.42
2022-08-05T18:36:03.464Z,18.39
2022-08-05T18:38:36.013Z,18.35
2022-08-05T18:41:56.358Z,18.31
2022-08-05T18:43:52.422Z,18.25
2022-08-05T18:46:20.027Z,18.22
2022-08-05T18:48:52.115Z,18.17
2022-08-05T18:52:05.934Z,18.12
2022-08-05T18:54:31.065Z,18.07
2022-08-05T18:57:02.315Z,18.02
2022-08-05T18:59:42.999Z,17.96
2022-08-05T19:02:28.051Z,17.88
2022-08-05T19:05:02.477Z,17.83
2022-08-05T19:07:47.858Z,17.78
2022-08-05T19:10:18.657Z,17.72
2022-08-05T19:12:57.246Z,17.65
2022-08-05T19:15:58.166Z,17.60
2022-08-05T19:18:13.572Z,17.53
2022-08-05T19:20:53.665Z,17.48
2022-08-05T19:24:04.286Z,17.42
2022-08-05T19:26:08.416Z,17.36
2022-08-05T19:28:42.075Z,17.31
2022-08-05T19:31:13.339Z,17.25
2022-08-05T19:33:48.246Z,17.20
2022-08-05T19:36:25.752Z,17.14
2022-08-05T19:39:00.975Z,17.09
2022-08-05T19:41:58.198Z,17.02
2022-08-05T19:44:17.414Z,16.95
2022-08-05T19:46:45.667Z,16.88
2022-08-05T19:49:16.908Z,16.85
2022-08-05T19:52:04.524Z,16.79
2022-08-05T19:54:34.539Z,16.72
2022-08-05T19:57:09.233Z,16.68
2022-08-05T19:59:55.889Z,16.63
2022-08-05T20:02:31.332Z,16.58
2022-08-05T20:04:59.610Z,16.53
2022-08-05T20:07:46.931Z,16.45
2022-08-05T20:10:17.158Z,16.41
2022-08-05T20:12:48.401Z,16.33
2022-08-05T20:15:48.211Z,16.29
2022-08-05T20:18:10.709Z,16.24
2022-08-05T20:20:56.170Z,16.17
2022-08-05T20:23:40.206Z,16.14
2022-08-05T20:26:16.585Z,16.09
2022-08-05T20:28:52.706Z,16.06
2022-08-05T20:31:28.300Z,16.03
2022-08-05T20:34:07.393Z,15.99
2022-08-05T20:36:35.575Z,15.95
2022-08-05T20:39:06.113Z,15.92
2022-08-05T20:41:44.190Z,15.87
2022-08-05T20:44:17.184Z,15.82
2022-08-05T20:46:45.254Z,15.78
2022-08-05T20:49:12.824Z,15.76
2022-08-05T20:51:39.712Z,15.72
2022-08-05T20:54:06.752Z,15.70
2022-08-05T20:56:42.507Z,15.66
2022-08-05T20:59:18.811Z,15.62
2022-08-05T21:01:46.759Z,15.60
2022-08-05T21:04:14.145Z,15.56
2022-08-05T21:06:45.549Z,15.52
2022-08-05T21:09:15.053Z,15.48
2022-08-05T21:12:10.353Z,15.42
2022-08-05T21:14:34.828Z,15.37
2022-08-05T21:17:06.112Z,15.34
2022-08-05T21:19:47.268Z,15.31
2022-08-05T21:22:21.706Z,15.28
2022-08-05T21:24:51.595Z,15.23
2022-08-05T21:27:25.547Z,15.21
2022-08-05T21:29:57.093Z,15.16
2022-08-05T21:32:26.694Z,15.12
2022-08-05T21:35:18.046Z,15.07
2022-08-05T21:37:47.033Z,15.02
2022-08-05T21:40:14.686Z,14.98
2022-08-05T21:42:44.450Z,14.92
2022-08-05T21:45:24.802Z,14.87
2022-08-05T21:48:06.473Z,14.83
2022-08-05T21:50:36.748Z,14.80
2022-08-05T21:53:16.472Z,14.75
2022-08-05T21:56:06.212Z,14.69
2022-08-05T21:58:32.585Z,14.61
2022-08-05T22:00:59.672Z,14.59
2022-08-05T22:03:52.769Z,14.55
2022-08-05T22:06:23.034Z,14.50
2022-08-05T22:09:13.086Z,14.44
2022-08-05T22:11:42.621Z,14.38
2022-08-05T22:14:34.343Z,14.34
2022-08-05T22:17:01.495Z,14.32
2022-08-05T22:20:01.088Z,14.27
2022-08-05T22:22:26.682Z,14.24
2022-08-05T22:26:09.019Z,14.21
2022-08-05T22:28:15.325Z,14.15
2022-08-05T22:30:56.673Z,14.08
2022-08-05T22:33:58.636Z,14.05
2022-08-05T22:36:15.549Z,14.01
2022-08-05T22:38:48.042Z,13.96
2022-08-05T22:41:26.426Z,13.89
2022-08-05T22:44:04.904Z,13.86
2022-08-05T22:46:32.243Z,13.82
2022-08-05T22:48:59.644Z,13.77
2022-08-05T22:52:02.573Z,13.73
2022-08-05T22:54:14.153Z,13.68
2022-08-05T22:56:41.034Z,13.65
2022-08-05T22:59:46.189Z,13.62
2022-08-05T23:02:04.513Z,13.56
2022-08-05T23:04:33.926Z,13.54
2022-08-05T23:07:01.385Z,13.50
2022-08-05T23:09:57.783Z,13.46
2022-08-05T23:12:18.011Z,13.43
2022-08-05T23:14:45.143Z,13.40
2022-08-05T23:17:35.065Z,13.36
2022-08-05T23:20:17.658Z,13.33
2022-08-05T23:22:47.486Z,13.29
2022-08-05T23:25:17.700Z,13.26
2022-08-05T23:28:07.214Z,13.20
2022-08-05T23:30:40.215Z,13.17
2022-08-05T23:33:21.962Z,13.13
2022-08-05T23:35:55.815Z,13.08
2022-08-05T23:38:26.055Z,13.05
2022-08-05T23:40:53.885Z,13.02
2022-08-05T23:43:25.104Z,12.96
2022-08-05T23:46:20.173Z,12.93
2022-08-05T23:49:01.228Z,12.88
2022-08-05T23:51:54.919Z,12.84
2022-08-05T23:54:25.516Z,12.79
2022-08-05T23:56:55.138Z,12.73
2022-08-05T23:59:23.171Z,12.71
